This is the latest recevied weather packets stored in our database for station/object NR6G-5. If no packets are shown the sender has not sent any weather packets the latest 10 day(s).
| Time | Temp. | Humidity | Pressure | Rain* | Wind** | Luminosity | Snow |
|---|---|---|---|---|---|---|---|
| 1778223543 | 20.56° C | 63% | 1014.2 hPa | 0 mm | - | - | - |
| 1778223243 | 20.56° C | 63% | 1014.2 hPa | 0 mm | - | - | - |
| 1778222945 | 20.56° C | 62% | 1014.2 hPa | 0 mm | - | - | - |
| 1778222644 | 20.56° C | 62% | 1014.1 hPa | 0 mm | - | - | - |
| 1778222344 | 20.56° C | 63% | 1014.1 hPa | 0 mm | - | - | - |
| 1778221748 | 20.56° C | 62% | 1014.2 hPa | 0 mm | - | - | - |
| 1778220252 | 20.56° C | 63% | 1014 hPa | 0 mm | - | - | - |
| 1778219948 | 20.56° C | 63% | 1014 hPa | 0 mm | - | - | - |
| 1778219343 | 21.11° C | 63% | 1013.9 hPa | 0 mm | - | - | - |
| 1778219043 | 21.11° C | 63% | 1013.9 hPa | 0 mm | - | - | - |
| 1778218743 | 21.11° C | 62% | 1014 hPa | 0 mm | - | - | - |
| 1778218143 | 21.67° C | 61% | 1014 hPa | 0 mm | - | - | - |
| 1778217685 | 22.22° C | 60% | 1014 hPa | 0 mm | - | - | - |
| 1778214952 | 23.33° C | 58% | 1013.9 hPa | 0 mm | - | - | - |
| 1778199152 | 30° C | 39% | 1012.5 hPa | 0 mm | - | - | - |
| 1778198552 | 30.56° C | 38% | 1012.5 hPa | 0 mm | - | - | - |
| 1778198252 | 30.56° C | 37% | 1012.5 hPa | 0 mm | - | - | - |
| 1778197953 | 30.56° C | 37% | 1012.6 hPa | 0 mm | - | - | - |
| 1778197653 | 30.56° C | 38% | 1012.6 hPa | 0 mm | - | - | - |
| 1778197053 | 30.56° C | 37% | 1012.6 hPa | 0 mm | - | - | - |
| 1778196752 | 30.56° C | 39% | 1012.6 hPa | 0 mm | - | - | - |
| 1778190990 | 29.44° C | 37% | 1013.6 hPa | 0 mm | - | - | - |
| 1778189489 | 28.89° C | 39% | 1013.9 hPa | 0 mm | - | - | - |
| 1778186135 | 28.33° C | 40% | 1014.7 hPa | 0 mm | - | - | - |
| 1778185533 | 27.78° C | 41% | 1014.8 hPa | 0 mm | - | - | - |
* Rain latest hour (hover to see other rain measurements)
** Current wind speed in m/s (hover to see current wind gust speed)